createdAt,value
2018-12-26T00:02:17.662Z,11.40
2018-12-26T00:04:50.723Z,11.40
2018-12-26T00:07:23.912Z,11.70
2018-12-26T00:09:58.111Z,10.93
2018-12-26T00:12:31.230Z,12.00
2018-12-26T00:15:04.614Z,14.17
2018-12-26T00:17:38.466Z,12.83
2018-12-26T00:20:11.796Z,12.47
2018-12-26T00:22:45.128Z,11.63
2018-12-26T00:25:18.332Z,12.00
2018-12-26T00:27:51.259Z,10.70
2018-12-26T00:30:24.229Z,13.00
2018-12-26T00:32:58.514Z,11.63
2018-12-26T00:35:31.698Z,18.20
2018-12-26T00:38:04.768Z,13.50
2018-12-26T00:40:37.703Z,11.40
2018-12-26T00:43:10.813Z,13.57
2018-12-26T00:45:43.825Z,10.63
2018-12-26T00:48:16.824Z,8.90
2018-12-26T00:50:49.763Z,10.27
2018-12-26T00:53:22.864Z,9.57
2018-12-26T00:55:55.685Z,10.23
2018-12-26T00:58:28.524Z,10.47
2018-12-26T01:01:01.428Z,10.60
2018-12-26T01:03:34.555Z,13.57
2018-12-26T01:06:07.619Z,11.93
2018-12-26T01:08:40.462Z,10.13
2018-12-26T01:11:13.950Z,13.30
2018-12-26T01:13:47.008Z,14.53
2018-12-26T01:16:19.970Z,16.27
2018-12-26T01:18:53.025Z,15.87
2018-12-26T01:21:26.174Z,16.27
2018-12-26T01:23:59.357Z,16.17
2018-12-26T01:26:32.557Z,21.87
2018-12-26T01:29:05.773Z,24.37
2018-12-26T01:31:38.781Z,24.70
2018-12-26T01:34:11.771Z,20.60
2018-12-26T01:36:45.800Z,21.87
2018-12-26T01:39:19.550Z,17.30
2018-12-26T01:41:52.519Z,17.60
2018-12-26T01:44:25.402Z,20.70
2018-12-26T01:46:58.546Z,20.90
2018-12-26T01:49:31.868Z,18.50
2018-12-26T01:52:04.909Z,21.87
2018-12-26T01:54:38.329Z,20.53
2018-12-26T01:57:12.380Z,20.47
2018-12-26T01:59:45.339Z,18.80
2018-12-26T02:02:18.168Z,21.47
2018-12-26T02:04:52.439Z,22.10
2018-12-26T02:07:25.585Z,20.47
2018-12-26T02:09:58.643Z,16.17
2018-12-26T02:12:31.779Z,18.57
2018-12-26T02:15:04.797Z,14.13
2018-12-26T02:17:37.675Z,11.73
2018-12-26T02:20:11.143Z,11.83
2018-12-26T02:22:44.010Z,8.83
2018-12-26T02:25:17.112Z,10.47
2018-12-26T02:27:49.960Z,8.57
2018-12-26T02:30:22.900Z,11.77
2018-12-26T02:32:57.193Z,15.57
2018-12-26T02:35:30.072Z,13.50
2018-12-26T02:38:04.026Z,16.93
2018-12-26T02:40:37.050Z,12.57
2018-12-26T02:43:11.392Z,14.47
2018-12-26T02:45:45.203Z,11.40
2018-12-26T02:48:18.129Z,10.53
2018-12-26T02:50:51.600Z,12.47
2018-12-26T02:53:26.064Z,12.13
2018-12-26T02:55:59.478Z,13.00
2018-12-26T02:58:32.683Z,14.53
2018-12-26T03:01:05.777Z,17.83
2018-12-26T03:03:39.063Z,19.40
2018-12-26T03:06:11.926Z,15.87
2018-12-26T03:08:45.000Z,13.53
2018-12-26T03:11:18.061Z,19.23
2018-12-26T03:13:51.490Z,13.87
2018-12-26T03:16:24.903Z,13.37
2018-12-26T03:18:57.895Z,13.60
2018-12-26T03:21:32.416Z,12.63
2018-12-26T03:24:05.353Z,11.53
2018-12-26T03:26:38.436Z,23.37
2018-12-26T03:29:11.497Z,14.67
2018-12-26T03:31:44.603Z,17.55
2018-12-26T03:34:18.146Z,16.97
2018-12-26T03:36:51.875Z,15.53
2018-12-26T03:39:24.944Z,13.73
2018-12-26T03:41:58.040Z,13.73
2018-12-26T03:44:32.297Z,14.27
2018-12-26T03:47:05.665Z,13.33
2018-12-26T03:49:38.970Z,15.60
2018-12-26T03:52:11.931Z,10.43
2018-12-26T03:54:45.387Z,13.90
2018-12-26T03:57:18.445Z,12.90
2018-12-26T03:59:52.276Z,11.97
2018-12-26T04:02:25.557Z,11.67
2018-12-26T04:04:58.738Z,10.03
2018-12-26T04:07:32.061Z,11.07
2018-12-26T04:10:05.421Z,11.60
2018-12-26T04:12:38.913Z,10.60
2018-12-26T04:15:12.037Z,11.03
2018-12-26T04:17:46.096Z,13.00
2018-12-26T04:20:19.445Z,11.97
2018-12-26T04:22:52.569Z,11.17
2018-12-26T04:25:25.687Z,11.83
2018-12-26T04:28:00.379Z,9.67
2018-12-26T04:30:34.003Z,10.50
2018-12-26T04:33:06.912Z,11.00
2018-12-26T04:35:40.316Z,9.87
2018-12-26T04:38:13.317Z,14.63
2018-12-26T04:40:46.214Z,12.17
2018-12-26T04:43:47.726Z,11.80
2018-12-26T04:46:20.734Z,16.00
2018-12-26T04:48:53.882Z,26.27
2018-12-26T04:51:26.993Z,21.83
2018-12-26T04:54:00.745Z,14.50
2018-12-26T04:56:33.824Z,13.20
2018-12-26T04:59:06.648Z,12.03
2018-12-26T05:01:39.700Z,19.53
2018-12-26T05:04:12.933Z,20.87
2018-12-26T05:06:46.104Z,15.90
2018-12-26T05:09:19.119Z,11.07
2018-12-26T05:11:52.246Z,12.23
2018-12-26T05:14:25.526Z,24.70
2018-12-26T05:17:00.069Z,24.70
2018-12-26T05:19:33.362Z,15.60
2018-12-26T05:22:06.073Z,18.03
2018-12-26T05:24:39.122Z,18.43
2018-12-26T05:27:12.190Z,21.17
2018-12-26T05:29:45.186Z,17.47
2018-12-26T05:32:17.975Z,16.93
2018-12-26T05:34:50.586Z,13.90
2018-12-26T05:37:23.381Z,12.27
2018-12-26T05:39:56.391Z,17.63
2018-12-26T05:42:29.338Z,14.37
2018-12-26T05:45:02.584Z,13.63
2018-12-26T05:47:35.514Z,11.10
2018-12-26T05:50:08.474Z,13.93
2018-12-26T05:52:41.878Z,18.63
2018-12-26T05:55:14.798Z,16.87
2018-12-26T05:57:48.264Z,16.13
2018-12-26T06:00:21.552Z,14.57
2018-12-26T06:02:54.895Z,12.90
2018-12-26T06:05:27.980Z,11.73
2018-12-26T06:08:01.076Z,13.27
2018-12-26T06:10:34.398Z,14.67
2018-12-26T06:13:07.809Z,30.30
2018-12-26T06:15:40.761Z,59.97
2018-12-26T06:18:13.829Z,40.40
2018-12-26T06:20:46.897Z,46.63
2018-12-26T06:23:20.447Z,43.10
2018-12-26T06:25:53.361Z,35.27
2018-12-26T06:28:26.639Z,46.63
2018-12-26T06:30:59.571Z,48.77
2018-12-26T06:33:32.649Z,48.83
2018-12-26T06:36:06.306Z,36.27
2018-12-26T06:38:39.715Z,35.53
2018-12-26T06:41:13.387Z,25.00
2018-12-26T06:43:46.466Z,27.57
2018-12-26T06:46:42.186Z,26.70
2018-12-26T06:49:15.542Z,19.97
2018-12-26T06:51:49.013Z,18.33
2018-12-26T06:54:22.069Z,21.37
2018-12-26T06:56:55.259Z,16.80
2018-12-26T06:59:28.095Z,13.97
2018-12-26T07:02:01.275Z,16.17
2018-12-26T07:04:34.714Z,22.70
2018-12-26T07:07:07.530Z,26.60
2018-12-26T07:09:40.928Z,24.63
2018-12-26T07:12:14.144Z,22.77
2018-12-26T07:14:47.347Z,29.77
2018-12-26T07:17:20.850Z,30.50
2018-12-26T07:19:54.046Z,29.80
2018-12-26T07:22:28.238Z,30.57
2018-12-26T07:25:01.587Z,16.37
2018-12-26T07:27:34.652Z,15.80
2018-12-26T07:30:08.033Z,16.60
2018-12-26T07:32:41.270Z,19.70
2018-12-26T07:35:14.422Z,14.07
2018-12-26T07:37:47.603Z,15.37
2018-12-26T07:40:20.401Z,14.30
2018-12-26T07:42:53.329Z,10.20
2018-12-26T07:45:26.714Z,10.77
2018-12-26T07:47:59.790Z,11.30
2018-12-26T07:50:32.838Z,13.80
2018-12-26T07:53:05.883Z,11.17
2018-12-26T07:55:39.038Z,15.87
2018-12-26T07:58:17.619Z,11.57
2018-12-26T08:00:47.696Z,13.47
2018-12-26T08:03:25.324Z,17.60
2018-12-26T08:06:04.027Z,14.83
2018-12-26T08:08:42.246Z,13.40
2018-12-26T08:11:18.790Z,9.90
2018-12-26T08:13:58.756Z,12.03
2018-12-26T08:16:39.556Z,12.67
2018-12-26T08:19:19.262Z,10.37
2018-12-26T08:21:55.588Z,10.47
2018-12-26T08:24:31.182Z,10.03
2018-12-26T08:27:08.873Z,10.73
2018-12-26T08:29:48.802Z,12.43
2018-12-26T08:32:26.479Z,9.27
2018-12-26T08:35:05.896Z,12.17
2018-12-26T08:37:42.849Z,11.33
2018-12-26T08:40:20.779Z,9.07
2018-12-26T08:42:59.870Z,10.80
2018-12-26T08:45:38.237Z,12.33
2018-12-26T08:48:21.781Z,11.80
2018-12-26T08:51:03.265Z,11.80
2018-12-26T08:53:41.179Z,10.33
2018-12-26T08:56:18.391Z,12.70
2018-12-26T08:58:58.443Z,12.87
2018-12-26T09:01:50.603Z,12.40
2018-12-26T09:04:29.912Z,13.10
2018-12-26T09:07:11.184Z,13.23
2018-12-26T09:09:47.437Z,11.63
2018-12-26T09:12:27.260Z,11.73
2018-12-26T09:18:11.668Z,11.93
2018-12-26T09:20:45.192Z,10.43
2018-12-26T09:23:18.313Z,10.50
2018-12-26T09:26:00.179Z,11.43
2018-12-26T09:28:33.368Z,9.93
2018-12-26T09:31:06.797Z,9.97
2018-12-26T09:33:40.814Z,8.30
2018-12-26T09:36:13.811Z,10.87
2018-12-26T09:38:47.281Z,11.93
2018-12-26T09:41:20.280Z,9.53
2018-12-26T09:43:53.786Z,14.40
2018-12-26T09:46:26.911Z,11.80
2018-12-26T09:49:00.177Z,12.07
2018-12-26T09:51:33.155Z,10.87
2018-12-26T09:54:06.160Z,9.50
2018-12-26T09:56:39.381Z,10.97
2018-12-26T09:59:12.729Z,9.80
2018-12-26T10:01:45.974Z,11.33
2018-12-26T10:04:19.343Z,14.93
2018-12-26T10:06:52.456Z,12.77
2018-12-26T10:09:30.182Z,14.70
2018-12-26T10:12:03.472Z,13.90
2018-12-26T10:14:36.335Z,12.27
2018-12-26T10:17:09.597Z,11.60
2018-12-26T10:19:42.933Z,12.40
2018-12-26T10:22:16.319Z,11.80
2018-12-26T10:24:50.956Z,9.67
2018-12-26T10:27:24.189Z,9.87
2018-12-26T10:29:57.564Z,10.10
2018-12-26T10:32:31.007Z,8.47
2018-12-26T10:35:04.496Z,9.60
2018-12-26T10:37:38.070Z,7.83
2018-12-26T10:40:11.743Z,8.27
2018-12-26T10:42:46.064Z,9.07
2018-12-26T10:45:19.496Z,6.87
2018-12-26T10:47:52.781Z,7.47
2018-12-26T10:50:26.583Z,8.43
2018-12-26T10:53:02.904Z,9.43
2018-12-26T10:55:36.617Z,10.03
2018-12-26T10:58:10.143Z,8.87
2018-12-26T11:00:43.880Z,12.37
2018-12-26T11:03:17.510Z,6.67
2018-12-26T11:05:50.719Z,11.93
2018-12-26T11:08:24.328Z,10.20
2018-12-26T11:10:58.270Z,10.23
2018-12-26T11:13:31.759Z,15.37
2018-12-26T11:16:05.172Z,28.23
2018-12-26T11:18:41.601Z,11.50
2018-12-26T11:21:18.098Z,14.60
2018-12-26T11:23:51.378Z,10.67
2018-12-26T11:26:24.476Z,10.53
2018-12-26T11:28:57.572Z,14.60
2018-12-26T11:31:30.653Z,10.90
2018-12-26T11:34:06.326Z,10.80
2018-12-26T11:36:41.627Z,9.07
2018-12-26T11:39:15.751Z,21.40
2018-12-26T11:41:51.158Z,10.93
2018-12-26T11:44:27.673Z,16.07
2018-12-26T11:47:02.038Z,6.00
2018-12-26T11:49:36.152Z,7.73
2018-12-26T11:52:10.445Z,7.60
2018-12-26T11:54:44.431Z,8.93
2018-12-26T11:57:18.343Z,7.47
2018-12-26T11:59:52.342Z,8.80
2018-12-26T12:02:26.140Z,9.30
2018-12-26T12:05:00.061Z,16.87
2018-12-26T12:07:34.126Z,13.50
2018-12-26T12:10:11.319Z,9.93
2018-12-26T12:12:45.106Z,34.33
2018-12-26T12:15:19.114Z,10.43
2018-12-26T12:17:52.256Z,11.43
2018-12-26T12:20:26.049Z,8.27
2018-12-26T12:22:59.785Z,19.57
2018-12-26T12:25:34.915Z,23.07
2018-12-26T12:28:08.773Z,11.97
2018-12-26T12:30:44.107Z,12.33
2018-12-26T12:33:19.925Z,14.03
2018-12-26T12:35:57.575Z,9.83
2018-12-26T12:38:31.235Z,13.70
2018-12-26T12:41:04.704Z,11.47
2018-12-26T12:43:38.371Z,12.10
2018-12-26T12:46:12.038Z,13.97
2018-12-26T12:48:45.970Z,20.47
2018-12-26T12:51:19.588Z,13.60
2018-12-26T12:53:54.681Z,19.13
2018-12-26T12:56:28.435Z,11.37
2018-12-26T12:59:02.464Z,14.03
2018-12-26T13:01:36.199Z,11.20
2018-12-26T13:04:12.188Z,11.73
2018-12-26T13:06:46.457Z,10.90
2018-12-26T13:09:24.861Z,16.17
2018-12-26T13:12:01.323Z,10.53
2018-12-26T13:14:35.112Z,12.37
2018-12-26T13:17:09.870Z,10.80
2018-12-26T13:19:43.712Z,14.43
2018-12-26T13:22:20.091Z,11.67
2018-12-26T13:24:53.593Z,8.47
2018-12-26T13:27:27.583Z,10.17
2018-12-26T13:30:02.267Z,10.97
2018-12-26T13:32:36.677Z,10.37
2018-12-26T13:35:10.240Z,17.60
2018-12-26T13:37:47.133Z,13.73
2018-12-26T13:40:21.132Z,12.13
2018-12-26T13:42:56.934Z,11.43
2018-12-26T13:45:31.399Z,10.70
2018-12-26T13:48:05.534Z,12.90
2018-12-26T13:50:39.672Z,17.07
2018-12-26T13:53:12.907Z,13.83
2018-12-26T13:55:46.633Z,15.47
2018-12-26T13:58:20.371Z,13.23
2018-12-26T14:00:54.747Z,15.40
2018-12-26T14:03:28.890Z,12.77
2018-12-26T14:06:05.152Z,15.90
2018-12-26T14:08:38.354Z,13.50
2018-12-26T14:11:14.411Z,14.40
2018-12-26T14:13:48.470Z,14.77
2018-12-26T14:16:21.539Z,15.53
2018-12-26T14:18:57.359Z,16.60
2018-12-26T14:21:31.110Z,18.40
2018-12-26T14:24:04.479Z,11.20
2018-12-26T14:26:38.324Z,14.43
2018-12-26T14:29:12.356Z,12.17
2018-12-26T14:31:46.023Z,17.53
2018-12-26T14:34:19.791Z,18.13
2018-12-26T14:39:56.946Z,16.20
2018-12-26T14:42:31.282Z,14.33
2018-12-26T14:45:08.161Z,10.17
2018-12-26T14:47:42.892Z,16.43
2018-12-26T14:50:17.072Z,13.03
2018-12-26T14:52:53.391Z,13.20
2018-12-26T14:55:27.645Z,14.87
2018-12-26T14:58:01.413Z,13.90
2018-12-26T15:00:35.542Z,12.70
2018-12-26T15:03:09.494Z,13.00
2018-12-26T15:05:43.082Z,13.47
2018-12-26T15:08:17.121Z,13.17
2018-12-26T15:10:50.918Z,15.97
2018-12-26T15:13:24.739Z,38.87
2018-12-26T15:15:58.668Z,25.50
2018-12-26T15:18:31.932Z,28.33
2018-12-26T15:21:05.802Z,24.07
2018-12-26T15:23:39.601Z,15.13
2018-12-26T15:26:12.888Z,21.53
2018-12-26T15:28:47.180Z,13.63
2018-12-26T15:31:22.787Z,19.87
2018-12-26T15:34:00.546Z,25.63
2018-12-26T15:36:38.358Z,17.70
2018-12-26T15:39:15.310Z,21.27
2018-12-26T15:41:49.027Z,21.37
2018-12-26T15:44:23.872Z,19.67
2018-12-26T15:46:58.312Z,17.87
2018-12-26T15:49:33.605Z,25.23
2018-12-26T15:52:09.874Z,12.03
2018-12-26T15:54:43.556Z,9.03
2018-12-26T15:57:17.015Z,12.93
2018-12-26T15:59:51.236Z,12.83
2018-12-26T16:02:26.457Z,11.93
2018-12-26T16:05:01.927Z,14.20
2018-12-26T16:07:38.875Z,17.00
2018-12-26T16:10:14.957Z,27.20
2018-12-26T16:12:49.264Z,23.90
2018-12-26T16:15:29.054Z,23.23
2018-12-26T16:18:17.345Z,24.10
2018-12-26T16:20:58.398Z,18.87
2018-12-26T16:23:35.960Z,16.70
2018-12-26T16:26:11.718Z,12.23
2018-12-26T16:28:47.529Z,14.77
2018-12-26T16:31:21.448Z,12.17
2018-12-26T16:33:56.041Z,11.00
2018-12-26T16:36:33.004Z,10.77
2018-12-26T16:39:09.703Z,13.30
2018-12-26T16:41:45.349Z,18.97
2018-12-26T16:44:20.703Z,12.90
2018-12-26T16:46:54.115Z,14.00
2018-12-26T16:49:32.874Z,16.87
2018-12-26T16:52:13.377Z,14.67
2018-12-26T16:54:47.807Z,12.93
2018-12-26T16:57:21.669Z,17.37
2018-12-26T16:59:55.248Z,14.60
2018-12-26T17:02:33.080Z,19.67
2018-12-26T17:05:14.201Z,16.97
2018-12-26T17:07:48.656Z,13.33
2018-12-26T17:10:32.950Z,19.57
2018-12-26T17:13:06.409Z,15.57
2018-12-26T17:15:43.803Z,12.07
2018-12-26T17:18:18.761Z,8.47
2018-12-26T17:20:56.242Z,18.20
2018-12-26T17:23:32.643Z,12.13
2018-12-26T17:26:06.816Z,9.13
2018-12-26T17:28:44.006Z,9.70
2018-12-26T17:31:19.258Z,8.77
2018-12-26T17:34:00.984Z,8.57
2018-12-26T17:36:41.004Z,7.37
2018-12-26T17:39:17.775Z,9.30
2018-12-26T17:41:54.175Z,8.17
2018-12-26T17:44:27.933Z,9.77
2018-12-26T17:47:03.504Z,8.80
2018-12-26T17:49:39.775Z,10.57
2018-12-26T17:52:20.176Z,9.53
2018-12-26T17:55:59.192Z,16.07
2018-12-26T17:58:42.311Z,13.20
2018-12-26T18:01:39.980Z,12.53
2018-12-26T18:04:16.440Z,11.17
2018-12-26T18:06:54.084Z,10.97
2018-12-26T18:09:28.261Z,10.33
2018-12-26T18:12:11.767Z,9.23
2018-12-26T18:15:01.325Z,11.47
2018-12-26T18:17:35.596Z,12.83
2018-12-26T18:20:17.808Z,11.20
2018-12-26T18:22:52.347Z,13.73
2018-12-26T18:25:29.761Z,12.63
2018-12-26T18:28:11.819Z,10.60
2018-12-26T18:30:48.971Z,9.10
2018-12-26T18:33:25.074Z,9.93
2018-12-26T18:36:18.555Z,10.13
2018-12-26T18:38:53.938Z,9.17
2018-12-26T18:41:32.883Z,13.83
2018-12-26T18:46:38.288Z,11.80
2018-12-26T18:49:12.286Z,13.00
2018-12-26T18:51:46.249Z,13.77
2018-12-26T18:54:20.602Z,13.40
2018-12-26T18:56:54.763Z,15.83
2018-12-26T18:59:30.915Z,13.63
2018-12-26T19:02:08.324Z,11.27
2018-12-26T19:04:46.742Z,11.70
2018-12-26T19:07:26.501Z,11.73
2018-12-26T19:10:02.196Z,12.00
2018-12-26T19:12:36.659Z,9.47
2018-12-26T19:15:14.268Z,11.40
2018-12-26T19:17:51.030Z,10.60
2018-12-26T19:20:24.883Z,11.87
2018-12-26T19:23:00.458Z,12.50
2018-12-26T19:25:37.404Z,10.07
2018-12-26T19:28:13.242Z,10.13
2018-12-26T19:30:47.508Z,14.60
2018-12-26T19:33:22.390Z,11.13
2018-12-26T19:35:56.374Z,18.30
2018-12-26T19:38:29.695Z,18.53
2018-12-26T19:41:04.889Z,12.33
2018-12-26T19:43:42.003Z,8.77
2018-12-26T19:46:15.897Z,9.43
2018-12-26T19:48:52.315Z,10.17
2018-12-26T19:51:26.221Z,9.47
2018-12-26T19:54:00.317Z,9.23
2018-12-26T19:56:34.984Z,8.93
2018-12-26T19:59:08.914Z,8.57
2018-12-26T20:01:48.361Z,7.90
2018-12-26T20:04:19.323Z,8.60
2018-12-26T20:06:53.341Z,8.90
2018-12-26T20:09:27.048Z,13.50
2018-12-26T20:12:08.033Z,13.37
2018-12-26T20:14:42.539Z,13.00
2018-12-26T20:17:17.445Z,8.50
2018-12-26T20:19:51.490Z,8.77
2018-12-26T20:22:25.394Z,9.53
2018-12-26T20:25:01.326Z,8.60
2018-12-26T20:27:34.950Z,9.57
2018-12-26T20:30:10.517Z,10.40
2018-12-26T20:32:44.126Z,12.23
2018-12-26T20:35:19.629Z,15.13
2018-12-26T20:37:53.444Z,8.23
2018-12-26T20:40:28.714Z,9.60
2018-12-26T20:43:04.951Z,11.73
2018-12-26T20:45:39.493Z,7.80
2018-12-26T20:48:12.954Z,9.43
2018-12-26T20:50:46.639Z,10.17
2018-12-26T20:53:20.609Z,11.07
2018-12-26T20:55:56.760Z,16.67
2018-12-26T20:58:30.160Z,9.53
2018-12-26T21:01:03.715Z,7.83
2018-12-26T21:03:38.426Z,7.63
2018-12-26T21:06:11.497Z,8.90
2018-12-26T21:08:45.212Z,10.67
2018-12-26T21:11:19.272Z,8.47
2018-12-26T21:13:52.693Z,7.67
2018-12-26T21:16:26.401Z,8.40
2018-12-26T21:19:00.303Z,12.43
2018-12-26T21:21:33.341Z,11.50
2018-12-26T21:24:06.677Z,9.10
2018-12-26T21:26:39.964Z,10.93
2018-12-26T21:29:13.579Z,10.53
2018-12-26T21:31:47.215Z,8.03
2018-12-26T21:34:20.625Z,21.17
2018-12-26T21:36:54.340Z,11.43
2018-12-26T21:39:29.127Z,11.83
2018-12-26T21:42:02.512Z,10.33
2018-12-26T21:44:35.834Z,8.30
2018-12-26T21:47:08.818Z,8.73
2018-12-26T21:49:41.832Z,8.70
2018-12-26T21:52:14.875Z,7.83
2018-12-26T21:54:48.038Z,11.00
2018-12-26T21:57:21.337Z,8.37
2018-12-26T21:59:54.499Z,8.50
2018-12-26T22:02:27.637Z,9.77
2018-12-26T22:05:02.305Z,8.23
2018-12-26T22:07:35.689Z,15.10
2018-12-26T22:10:08.960Z,10.77
2018-12-26T22:12:41.870Z,9.50
2018-12-26T22:15:14.815Z,11.67
2018-12-26T22:17:47.852Z,8.87
2018-12-26T22:20:20.813Z,7.47
2018-12-26T22:22:54.324Z,9.53
2018-12-26T22:25:27.661Z,7.27
2018-12-26T22:28:00.854Z,15.87
2018-12-26T22:30:34.272Z,8.27
2018-12-26T22:33:07.282Z,8.23
2018-12-26T22:35:40.486Z,6.83
2018-12-26T22:38:13.878Z,8.00
2018-12-26T22:40:46.973Z,8.83
2018-12-26T22:43:21.233Z,8.60
2018-12-26T22:45:54.545Z,7.63
2018-12-26T22:48:27.790Z,14.53
2018-12-26T22:51:00.934Z,10.83
2018-12-26T22:53:33.795Z,10.67
2018-12-26T22:56:06.762Z,9.17
2018-12-26T22:58:39.717Z,10.27
2018-12-26T23:01:12.536Z,7.63
2018-12-26T23:03:45.663Z,7.07
2018-12-26T23:06:18.737Z,9.70
2018-12-26T23:08:51.708Z,6.07
2018-12-26T23:11:24.682Z,8.27
2018-12-26T23:13:57.438Z,6.20
2018-12-26T23:16:30.864Z,6.30
2018-12-26T23:19:03.730Z,8.63
2018-12-26T23:21:36.632Z,6.83
2018-12-26T23:24:09.525Z,8.37
2018-12-26T23:26:42.744Z,7.77
2018-12-26T23:29:15.733Z,6.40
2018-12-26T23:31:48.413Z,9.77
2018-12-26T23:34:21.329Z,9.37
2018-12-26T23:36:54.158Z,7.27
2018-12-26T23:39:27.602Z,7.27
2018-12-26T23:42:00.394Z,8.70
2018-12-26T23:44:33.251Z,7.80
2018-12-26T23:47:06.917Z,7.47
2018-12-26T23:49:39.790Z,7.53
2018-12-26T23:52:13.202Z,6.87
2018-12-26T23:54:46.254Z,5.90
2018-12-26T23:57:19.122Z,11.20
2018-12-26T23:59:52.300Z,9.03
